sensor_id;sensor_type;location;lat;lon;timestamp;pressure;altitude;pressure_sealevel;temperature;humidity
48027;BME280;50714;49.208;5.364;2023-04-28T00:08:43;99122.25;;;14.07;79.33
48027;BME280;50714;49.208;5.364;2023-04-28T00:18:43;99113.41;;;14.12;79.62
48027;BME280;50714;49.208;5.364;2023-04-28T00:28:44;99111.97;;;14.09;80.16
48027;BME280;50714;49.208;5.364;2023-04-28T00:38:44;99079.19;;;14.11;79.97
48027;BME280;50714;49.208;5.364;2023-04-28T00:48:44;99077.16;;;14.18;80.21
48027;BME280;50714;49.208;5.364;2023-04-28T00:58:45;99067.50;;;14.10;82.12
48027;BME280;50714;49.208;5.364;2023-04-28T01:08:47;99057.13;;;14.07;83.95
48027;BME280;50714;49.208;5.364;2023-04-28T01:18:48;99053.44;;;14.02;85.31
48027;BME280;50714;49.208;5.364;2023-04-28T01:28:49;99051.22;;;13.87;87.48
48027;BME280;50714;49.208;5.364;2023-04-28T01:38:50;99032.34;;;13.80;89.22
48027;BME280;50714;49.208;5.364;2023-04-28T01:48:50;99045.78;;;13.75;90.30
48027;BME280;50714;49.208;5.364;2023-04-28T01:58:51;99038.00;;;13.79;91.10
48027;BME280;50714;49.208;5.364;2023-04-28T02:08:51;99038.22;;;13.77;90.66
48027;BME280;50714;49.208;5.364;2023-04-28T02:18:51;99039.75;;;13.73;92.35
48027;BME280;50714;49.208;5.364;2023-04-28T02:28:52;99035.53;;;13.89;91.95
48027;BME280;50714;49.208;5.364;2023-04-28T02:38:52;99019.72;;;13.97;92.42
48027;BME280;50714;49.208;5.364;2023-04-28T02:48:53;99024.78;;;14.06;93.91
48027;BME280;50714;49.208;5.364;2023-04-28T02:58:53;99011.69;;;14.14;94.42
48027;BME280;50714;49.208;5.364;2023-04-28T03:08:54;99016.16;;;14.20;95.23
48027;BME280;50714;49.208;5.364;2023-04-28T03:18:55;99012.38;;;14.21;96.09
48027;BME280;50714;49.208;5.364;2023-04-28T03:28:55;99003.41;;;14.21;97.81
48027;BME280;50714;49.208;5.364;2023-04-28T03:38:56;98984.66;;;14.19;99.00
48027;BME280;50714;49.208;5.364;2023-04-28T03:48:56;98998.56;;;14.23;99.61
48027;BME280;50714;49.208;5.364;2023-04-28T03:58:56;98984.03;;;14.29;100.00
48027;BME280;50714;49.208;5.364;2023-04-28T04:08:57;98994.91;;;14.29;100.00
48027;BME280;50714;49.208;5.364;2023-04-28T04:18:57;98995.25;;;14.32;100.00
48027;BME280;50714;49.208;5.364;2023-04-28T04:28:57;98992.06;;;14.36;100.00
48027;BME280;50714;49.208;5.364;2023-04-28T04:38:58;98987.22;;;14.38;100.00
48027;BME280;50714;49.208;5.364;2023-04-28T04:48:58;98990.28;;;14.41;100.00
48027;BME280;50714;49.208;5.364;2023-04-28T04:58:58;98990.88;;;14.43;100.00
48027;BME280;50714;49.208;5.364;2023-04-28T05:08:59;99005.38;;;14.49;100.00
48027;BME280;50714;49.208;5.364;2023-04-28T05:18:59;99011.84;;;14.59;100.00
48027;BME280;50714;49.208;5.364;2023-04-28T05:29:00;99006.03;;;14.67;100.00
48027;BME280;50714;49.208;5.364;2023-04-28T05:39:00;99008.84;;;14.73;100.00
48027;BME280;50714;49.208;5.364;2023-04-28T05:49:00;99017.44;;;14.81;100.00
48027;BME280;50714;49.208;5.364;2023-04-28T05:59:01;99028.66;;;14.85;100.00
48027;BME280;50714;49.208;5.364;2023-04-28T06:09:03;99040.66;;;14.89;100.00
48027;BME280;50714;49.208;5.364;2023-04-28T06:19:03;99044.78;;;14.91;100.00
48027;BME280;50714;49.208;5.364;2023-04-28T06:29:04;99044.66;;;14.98;100.00
48027;BME280;50714;49.208;5.364;2023-04-28T06:39:04;99055.16;;;15.06;100.00
48027;BME280;50714;49.208;5.364;2023-04-28T06:49:05;99059.94;;;15.16;100.00
48027;BME280;50714;49.208;5.364;2023-04-28T06:59:05;99058.50;;;15.42;100.00
48027;BME280;50714;49.208;5.364;2023-04-28T07:09:06;99075.72;;;15.59;100.00
48027;BME280;50714;49.208;5.364;2023-04-28T07:19:06;99073.53;;;15.61;100.00
48027;BME280;50714;49.208;5.364;2023-04-28T07:29:07;99088.00;;;15.78;100.00
48027;BME280;50714;49.208;5.364;2023-04-28T07:39:08;99092.13;;;15.81;100.00
48027;BME280;50714;49.208;5.364;2023-04-28T07:49:08;99089.91;;;15.78;100.00
48027;BME280;50714;49.208;5.364;2023-04-28T07:59:08;99094.16;;;15.90;100.00
48027;BME280;50714;49.208;5.364;2023-04-28T08:09:09;99101.34;;;15.96;100.00
48027;BME280;50714;49.208;5.364;2023-04-28T08:19:09;99102.97;;;16.14;100.00
48027;BME280;50714;49.208;5.364;2023-04-28T08:29:10;99109.16;;;16.26;100.00
48027;BME280;50714;49.208;5.364;2023-04-28T08:39:10;99119.81;;;16.28;100.00
48027;BME280;50714;49.208;5.364;2023-04-28T08:49:15;99130.50;;;16.34;100.00
48027;BME280;50714;49.208;5.364;2023-04-28T08:59:17;99132.25;;;16.41;100.00
48027;BME280;50714;49.208;5.364;2023-04-28T09:09:28;99130.88;;;16.21;100.00
48027;BME280;50714;49.208;5.364;2023-04-28T09:19:33;99135.50;;;16.21;100.00
48027;BME280;50714;49.208;5.364;2023-04-28T09:29:36;99128.91;;;16.72;100.00
48027;BME280;50714;49.208;5.364;2023-04-28T09:39:36;99132.56;;;17.26;100.00
48027;BME280;50714;49.208;5.364;2023-04-28T09:49:55;99114.00;;;17.77;100.00
48027;BME280;50714;49.208;5.364;2023-04-28T09:59:57;99121.16;;;19.04;100.00
48027;BME280;50714;49.208;5.364;2023-04-28T10:09:57;99125.69;;;18.79;93.15
48027;BME280;50714;49.208;5.364;2023-04-28T10:19:59;99117.97;;;18.65;96.87
48027;BME280;50714;49.208;5.364;2023-04-28T10:30:16;99122.91;;;19.41;90.18
48027;BME280;50714;49.208;5.364;2023-04-28T10:40:36;99124.94;;;18.88;88.24
48027;BME280;50714;49.208;5.364;2023-04-28T10:51:19;99126.50;;;18.37;91.43
48027;BME280;50714;49.208;5.364;2023-04-28T11:11:21;99103.41;;;18.13;94.29
48027;BME280;50714;49.208;5.364;2023-04-28T11:21:24;99095.03;;;18.29;91.86
48027;BME280;50714;49.208;5.364;2023-04-28T11:31:25;99079.53;;;18.40;92.65
48027;BME280;50714;49.208;5.364;2023-04-28T11:41:25;99079.69;;;18.23;92.20
48027;BME280;50714;49.208;5.364;2023-04-28T11:51:30;99089.75;;;18.13;93.61
48027;BME280;50714;49.208;5.364;2023-04-28T12:01:32;99084.41;;;17.96;94.62
48027;BME280;50714;49.208;5.364;2023-04-28T12:11:33;99082.66;;;17.80;96.46
48027;BME280;50714;49.208;5.364;2023-04-28T12:21:33;99084.75;;;18.04;99.87
48027;BME280;50714;49.208;5.364;2023-04-28T12:31:46;99082.31;;;19.02;98.44
48027;BME280;50714;49.208;5.364;2023-04-28T12:41:47;99076.75;;;19.75;92.65
48027;BME280;50714;49.208;5.364;2023-04-28T12:51:47;99089.03;;;19.67;92.23
48027;BME280;50714;49.208;5.364;2023-04-28T13:01:48;99079.47;;;19.70;89.67
48027;BME280;50714;49.208;5.364;2023-04-28T13:11:49;99076.19;;;19.68;88.47
48027;BME280;50714;49.208;5.364;2023-04-28T13:21:50;99073.97;;;19.65;85.11
48027;BME280;50714;49.208;5.364;2023-04-28T13:31:51;99076.44;;;19.61;84.89
48027;BME280;50714;49.208;5.364;2023-04-28T13:41:51;99062.78;;;20.02;83.63
48027;BME280;50714;49.208;5.364;2023-04-28T13:51:51;99055.88;;;20.15;80.95
48027;BME280;50714;49.208;5.364;2023-04-28T14:01:52;99057.53;;;20.21;80.23
48027;BME280;50714;49.208;5.364;2023-04-28T14:11:52;99053.41;;;20.23;80.72
48027;BME280;50714;49.208;5.364;2023-04-28T14:21:55;99064.06;;;20.50;78.76
48027;BME280;50714;49.208;5.364;2023-04-28T14:31:56;99058.06;;;20.43;77.28
48027;BME280;50714;49.208;5.364;2023-04-28T14:41:56;99052.59;;;20.13;77.83
48027;BME280;50714;49.208;5.364;2023-04-28T14:51:56;99038.66;;;19.94;76.40
48027;BME280;50714;49.208;5.364;2023-04-28T15:01:59;99039.47;;;19.84;76.01
48027;BME280;50714;49.208;5.364;2023-04-28T15:12:00;99041.41;;;19.79;73.83
48027;BME280;50714;49.208;5.364;2023-04-28T15:22:00;99040.31;;;19.80;73.78
48027;BME280;50714;49.208;5.364;2023-04-28T15:32:00;99041.97;;;19.81;72.93
48027;BME280;50714;49.208;5.364;2023-04-28T15:42:01;99039.22;;;19.70;71.48
48027;BME280;50714;49.208;5.364;2023-04-28T15:52:04;99035.63;;;19.50;72.34
48027;BME280;50714;49.208;5.364;2023-04-28T16:02:04;99045.25;;;19.52;73.14
48027;BME280;50714;49.208;5.364;2023-04-28T16:12:05;99046.06;;;19.58;71.05
48027;BME280;50714;49.208;5.364;2023-04-28T16:22:05;99049.06;;;19.51;72.60
48027;BME280;50714;49.208;5.364;2023-04-28T16:32:06;99053.13;;;19.38;71.92
48027;BME280;50714;49.208;5.364;2023-04-28T16:42:06;99053.34;;;19.17;72.44
48027;BME280;50714;49.208;5.364;2023-04-28T16:52:07;99064.03;;;19.13;72.21
48027;BME280;50714;49.208;5.364;2023-04-28T17:02:08;99067.00;;;19.01;71.41
48027;BME280;50714;49.208;5.364;2023-04-28T17:12:08;99063.69;;;18.89;72.34
48027;BME280;50714;49.208;5.364;2023-04-28T17:22:09;99067.47;;;18.78;73.11
48027;BME280;50714;49.208;5.364;2023-04-28T17:32:09;99077.81;;;18.66;73.56
48027;BME280;50714;49.208;5.364;2023-04-28T17:42:10;99076.03;;;18.50;73.44
48027;BME280;50714;49.208;5.364;2023-04-28T17:52:10;99077.88;;;18.34;73.66
48027;BME280;50714;49.208;5.364;2023-04-28T18:02:11;99086.75;;;18.14;74.27
48027;BME280;50714;49.208;5.364;2023-04-28T18:12:11;99092.28;;;17.87;75.59
48027;BME280;50714;49.208;5.364;2023-04-28T18:22:12;99082.69;;;17.58;77.03
48027;BME280;50714;49.208;5.364;2023-04-28T18:32:12;99091.22;;;17.34;77.71
48027;BME280;50714;49.208;5.364;2023-04-28T18:42:12;99106.22;;;17.10;78.71
48027;BME280;50714;49.208;5.364;2023-04-28T18:52:13;99116.56;;;16.86;78.77
48027;BME280;50714;49.208;5.364;2023-04-28T19:02:13;99115.28;;;16.55;78.67
48027;BME280;50714;49.208;5.364;2023-04-28T19:12:15;99133.03;;;16.02;78.85
48027;BME280;50714;49.208;5.364;2023-04-28T19:22:34;99146.84;;;15.84;81.99
48027;BME280;50714;49.208;5.364;2023-04-28T19:32:35;99172.53;;;15.60;80.83
48027;BME280;50714;49.208;5.364;2023-04-28T19:42:36;99185.72;;;15.40;80.99
48027;BME280;50714;49.208;5.364;2023-04-28T19:52:36;99202.69;;;15.18;81.88
48027;BME280;50714;49.208;5.364;2023-04-28T20:02:37;99214.19;;;15.09;82.31
48027;BME280;50714;49.208;5.364;2023-04-28T20:12:38;99231.69;;;14.78;82.80
48027;BME280;50714;49.208;5.364;2023-04-28T20:22:39;99243.53;;;14.60;83.83
48027;BME280;50714;49.208;5.364;2023-04-28T20:32:40;99258.28;;;14.64;86.69
48027;BME280;50714;49.208;5.364;2023-04-28T20:42:40;99271.72;;;14.71;87.17
48027;BME280;50714;49.208;5.364;2023-04-28T20:52:40;99281.91;;;14.75;86.87
48027;BME280;50714;49.208;5.364;2023-04-28T21:02:41;99283.19;;;14.61;86.26
48027;BME280;50714;49.208;5.364;2023-04-28T21:12:41;99289.19;;;14.51;85.73
48027;BME280;50714;49.208;5.364;2023-04-28T21:22:41;99285.34;;;14.29;85.67
48027;BME280;50714;49.208;5.364;2023-04-28T21:32:42;99297.09;;;14.11;85.46
48027;BME280;50714;49.208;5.364;2023-04-28T21:42:42;99288.50;;;13.84;86.07
48027;BME280;50714;49.208;5.364;2023-04-28T21:52:42;99310.47;;;13.64;85.93
48027;BME280;50714;49.208;5.364;2023-04-28T22:02:43;99314.16;;;13.52;86.13
48027;BME280;50714;49.208;5.364;2023-04-28T22:12:44;99324.94;;;13.40;85.15
48027;BME280;50714;49.208;5.364;2023-04-28T22:22:45;99328.53;;;13.16;85.12
48027;BME280;50714;49.208;5.364;2023-04-28T22:32:45;99342.75;;;13.05;84.61
48027;BME280;50714;49.208;5.364;2023-04-28T22:42:46;99351.50;;;12.82;84.59
48027;BME280;50714;49.208;5.364;2023-04-28T22:52:46;99359.81;;;12.62;84.54
48027;BME280;50714;49.208;5.364;2023-04-28T23:02:47;99360.88;;;12.54;85.66
48027;BME280;50714;49.208;5.364;2023-04-28T23:12:47;99372.94;;;12.58;85.33
48027;BME280;50714;49.208;5.364;2023-04-28T23:22:47;99380.75;;;12.48;85.58
48027;BME280;50714;49.208;5.364;2023-04-28T23:32:49;99380.16;;;12.40;85.61
48027;BME280;50714;49.208;5.364;2023-04-28T23:42:49;99385.19;;;12.29;86.23
48027;BME280;50714;49.208;5.364;2023-04-28T23:52:49;99388.16;;;12.28;86.97
